createdAt,value
2022-11-28T06:49:19.102Z,4.88
2022-11-28T06:50:21.107Z,4.92
2022-11-28T06:51:23.128Z,4.93
2022-11-28T06:52:25.145Z,4.98
2022-11-28T06:53:31.304Z,4.95
2022-11-28T06:54:29.195Z,5.01
2022-11-28T06:55:31.225Z,4.96
2022-11-28T06:56:33.238Z,4.98
2022-11-28T06:57:35.288Z,4.92
2022-11-28T06:58:37.312Z,4.89
2022-11-28T06:59:39.405Z,4.81
2022-11-28T07:00:41.499Z,4.73
2022-11-28T07:01:43.548Z,4.68
2022-11-28T07:02:45.578Z,4.62
2022-11-28T07:03:47.589Z,4.68
2022-11-28T07:04:49.595Z,4.67
2022-11-28T07:05:51.627Z,4.67
2022-11-28T07:06:53.642Z,4.75
2022-11-28T07:07:55.703Z,4.74
2022-11-28T07:08:57.721Z,4.75
2022-11-28T07:09:59.748Z,4.74
2022-11-28T07:11:01.757Z,4.74
2022-11-28T07:12:03.816Z,4.75
2022-11-28T07:13:05.920Z,4.81
2022-11-28T07:14:07.909Z,4.80
2022-11-28T07:15:09.922Z,4.85
2022-11-28T07:16:12.025Z,4.91
2022-11-28T07:17:14.030Z,4.89
2022-11-28T07:18:16.058Z,4.93
2022-11-28T07:19:18.065Z,4.92
2022-11-28T07:20:20.069Z,4.93
2022-11-28T07:21:22.082Z,4.99
2022-11-28T07:22:24.097Z,5.01
2022-11-28T07:23:26.124Z,5.10
2022-11-28T07:24:28.131Z,5.16
2022-11-28T07:25:30.105Z,5.17
2022-11-28T07:26:32.114Z,5.10
2022-11-28T07:27:34.157Z,5.09
2022-11-28T07:28:36.198Z,5.09
2022-11-28T07:29:38.201Z,5.09
2022-11-28T07:30:40.210Z,5.17
2022-11-28T07:31:42.264Z,5.22
2022-11-28T07:32:44.279Z,5.34
2022-11-28T07:33:46.273Z,5.31
2022-11-28T07:34:50.277Z,5.40
2022-11-28T07:35:50.172Z,5.38
2022-11-28T07:36:52.146Z,5.32
2022-11-28T07:37:54.184Z,5.31
2022-11-28T07:38:56.193Z,5.25
2022-11-28T07:39:58.201Z,5.25
2022-11-28T07:41:00.221Z,5.27
2022-11-28T07:42:02.429Z,5.28
2022-11-28T07:43:03.393Z,5.25
2022-11-28T07:44:05.402Z,5.27
2022-11-28T07:45:07.421Z,5.27
2022-11-28T07:46:09.509Z,5.29
2022-11-28T07:47:11.522Z,5.31
2022-11-28T07:48:13.541Z,5.29
2022-11-28T07:49:15.573Z,5.28
2022-11-28T07:50:17.598Z,5.28
2022-11-28T07:51:19.623Z,5.29
2022-11-28T07:52:21.634Z,5.27
2022-11-28T07:53:23.667Z,5.27
2022-11-28T07:54:25.665Z,5.22
2022-11-28T07:55:27.693Z,5.20
2022-11-28T07:56:50.136Z,5.24
2022-11-28T07:57:31.127Z,5.24
2022-11-28T07:58:33.179Z,5.27
2022-11-28T07:59:35.187Z,5.34
2022-11-28T08:00:37.196Z,5.29
2022-11-28T08:01:39.274Z,5.31
2022-11-28T08:02:41.275Z,5.29
2022-11-28T08:03:43.315Z,5.32
2022-11-28T08:04:50.486Z,5.32
2022-11-28T08:05:46.771Z,5.32
2022-11-28T08:06:48.782Z,5.31
2022-11-28T08:07:50.834Z,5.31
2022-11-28T08:08:52.885Z,5.28
2022-11-28T08:09:54.896Z,5.29
2022-11-28T08:10:56.922Z,5.25
2022-11-28T08:11:58.948Z,5.20
2022-11-28T08:13:00.927Z,5.14
2022-11-28T08:14:02.989Z,5.19
2022-11-28T08:15:05.015Z,5.16
2022-11-28T08:16:07.224Z,5.24
2022-11-28T08:17:08.160Z,5.27
2022-11-28T08:18:10.165Z,5.28
2022-11-28T08:19:12.182Z,5.28
2022-11-28T08:20:14.189Z,5.24
2022-11-28T08:21:16.198Z,5.22
2022-11-28T08:22:18.214Z,5.24
2022-11-28T08:23:20.222Z,5.24
2022-11-28T08:24:22.260Z,5.24
2022-11-28T08:25:24.322Z,5.29
2022-11-28T08:26:30.379Z,5.28
2022-11-28T08:27:28.458Z,5.29
2022-11-28T08:28:30.491Z,5.38
2022-11-28T08:29:32.538Z,5.34
2022-11-28T08:30:34.565Z,5.31
2022-11-28T08:31:36.597Z,5.27
2022-11-28T08:32:38.622Z,5.25
2022-11-28T08:33:40.652Z,5.32
2022-11-28T08:34:42.658Z,5.27
2022-11-28T08:35:44.667Z,5.24
2022-11-28T08:36:46.715Z,5.29
2022-11-28T08:37:48.725Z,5.31
2022-11-28T08:39:09.373Z,5.34
2022-11-28T08:39:52.184Z,5.38
2022-11-28T08:40:54.197Z,5.45
2022-11-28T08:41:56.175Z,5.43
2022-11-28T08:42:58.185Z,5.40
2022-11-28T08:44:00.224Z,5.31
2022-11-28T08:45:02.263Z,5.27
2022-11-28T08:46:04.308Z,5.29
2022-11-28T08:47:06.315Z,5.37
2022-11-28T08:48:08.346Z,5.42
2022-11-28T08:49:10.351Z,5.40
2022-11-28T08:50:12.371Z,5.38
2022-11-28T08:51:14.374Z,5.47
2022-11-28T08:52:16.399Z,5.54
2022-11-28T08:53:18.788Z,5.50
2022-11-28T08:54:19.691Z,5.50
2022-11-28T08:55:25.205Z,5.54
2022-11-28T08:56:23.174Z,5.59
2022-11-28T08:57:25.181Z,5.65
2022-11-28T08:58:27.194Z,5.66
2022-11-28T08:59:29.217Z,5.68
2022-11-28T09:00:31.236Z,5.71
2022-11-28T09:01:33.321Z,5.75
2022-11-28T09:02:35.283Z,5.80
2022-11-28T09:03:37.334Z,5.64
2022-11-28T09:04:39.338Z,5.65
2022-11-28T09:05:41.379Z,5.75
2022-11-28T09:06:43.393Z,5.69
2022-11-28T09:07:45.460Z,5.64
2022-11-28T09:08:56.544Z,5.75
2022-11-28T09:09:49.104Z,5.82
2022-11-28T09:10:50.148Z,5.86
2022-11-28T09:11:52.191Z,5.97
2022-11-28T09:12:54.220Z,6.05
2022-11-28T09:13:56.224Z,6.09
2022-11-28T09:14:58.233Z,6.11
2022-11-28T09:16:00.279Z,5.97
2022-11-28T09:17:02.398Z,5.93
2022-11-28T09:18:04.415Z,5.93
2022-11-28T09:19:06.426Z,6.05
2022-11-28T09:20:08.475Z,5.94
2022-11-28T09:21:10.506Z,5.98
2022-11-28T09:22:12.518Z,6.01
2022-11-28T09:23:14.528Z,5.89
2022-11-28T09:24:16.538Z,5.94
2022-11-28T09:25:18.570Z,6.09
2022-11-28T09:26:20.577Z,6.25
2022-11-28T09:27:22.581Z,6.26
2022-11-28T09:28:24.598Z,6.12
2022-11-28T09:29:26.609Z,6.22
2022-11-28T09:30:28.670Z,6.29
2022-11-28T09:31:30.745Z,6.41
2022-11-28T09:32:33.756Z,6.53
2022-11-28T09:33:34.647Z,6.62
2022-11-28T09:34:36.665Z,6.76
2022-11-28T09:35:38.692Z,6.61
2022-11-28T09:36:40.703Z,6.62
2022-11-28T09:37:42.742Z,6.59
2022-11-28T09:38:44.753Z,6.55
2022-11-28T09:40:11.361Z,6.65
2022-11-28T09:40:48.212Z,6.48
2022-11-28T09:41:50.225Z,6.37
2022-11-28T09:42:52.232Z,6.25
2022-11-28T09:43:55.224Z,6.30
2022-11-28T09:44:56.193Z,6.50
2022-11-28T09:45:58.243Z,6.55
2022-11-28T09:47:00.244Z,6.65
2022-11-28T09:48:02.253Z,6.66
2022-11-28T09:49:04.261Z,6.59
2022-11-28T09:50:06.267Z,6.41
2022-11-28T09:51:08.274Z,6.45
2022-11-28T09:52:10.356Z,6.37
2022-11-28T09:53:12.366Z,6.30
2022-11-28T09:54:14.392Z,6.23
2022-11-28T09:55:16.422Z,6.30
2022-11-28T09:56:18.427Z,6.38
2022-11-28T09:57:20.447Z,6.25
2022-11-28T09:58:22.473Z,6.30
2022-11-28T09:59:24.505Z,6.38
2022-11-28T10:00:26.531Z,6.48
2022-11-28T10:01:28.542Z,6.56
2022-11-28T10:02:31.326Z,6.68
2022-11-28T10:03:32.261Z,6.74
2022-11-28T10:04:34.284Z,6.65
2022-11-28T10:05:36.281Z,6.48
2022-11-28T10:06:38.310Z,6.41
2022-11-28T10:07:40.392Z,6.62
2022-11-28T10:08:42.420Z,6.73
2022-11-28T10:09:44.840Z,6.83
2022-11-28T10:10:45.889Z,6.96
2022-11-28T10:11:47.894Z,7.02
2022-11-28T10:12:49.929Z,7.02
2022-11-28T10:14:07.717Z,7.14
2022-11-28T10:14:53.361Z,7.18
2022-11-28T10:15:55.376Z,7.24
2022-11-28T10:16:57.578Z,7.29
2022-11-28T10:17:58.534Z,7.25
2022-11-28T10:19:00.547Z,7.21
2022-11-28T10:20:02.831Z,7.11
2022-11-28T10:21:03.833Z,7.06
2022-11-28T10:22:05.844Z,7.06
2022-11-28T10:23:07.887Z,7.14
2022-11-28T10:24:09.897Z,7.03
2022-11-28T10:25:12.727Z,7.07
2022-11-28T10:26:13.652Z,6.99
2022-11-28T10:27:15.709Z,6.84
2022-11-28T10:28:17.769Z,6.84
2022-11-28T10:29:19.762Z,6.86
2022-11-28T10:30:21.772Z,6.74
2022-11-28T10:31:23.796Z,6.61
2022-11-28T10:32:25.785Z,6.59
2022-11-28T10:33:27.820Z,6.73
2022-11-28T10:34:29.820Z,6.86
2022-11-28T10:35:31.825Z,6.91
2022-11-28T10:36:33.849Z,6.76
2022-11-28T10:37:35.873Z,6.84
2022-11-28T10:38:37.889Z,6.92
2022-11-28T10:39:39.993Z,6.96
2022-11-28T10:40:41.019Z,7.05
2022-11-28T10:41:43.032Z,7.14
2022-11-28T10:42:45.071Z,7.21
2022-11-28T10:43:47.109Z,7.28
2022-11-28T10:44:49.118Z,7.42
2022-11-28T10:45:51.200Z,7.32
2022-11-28T10:46:53.176Z,7.25
2022-11-28T10:47:55.202Z,7.00
2022-11-28T10:48:57.223Z,7.06
2022-11-28T10:49:59.233Z,7.13
2022-11-28T10:51:01.219Z,7.18
2022-11-28T10:52:03.228Z,7.14
2022-11-28T10:53:05.243Z,7.25
2022-11-28T10:54:07.272Z,7.39
2022-11-28T10:55:09.272Z,7.35
2022-11-28T10:56:11.820Z,7.17
2022-11-28T10:57:12.799Z,7.20
2022-11-28T10:58:14.807Z,7.24
2022-11-28T10:59:16.812Z,7.21
2022-11-28T11:00:18.825Z,7.31
2022-11-28T11:01:20.906Z,7.33
2022-11-28T11:02:22.928Z,7.40
2022-11-28T11:03:25.017Z,7.33
2022-11-28T11:04:27.144Z,7.06
2022-11-28T11:05:29.189Z,6.81
2022-11-28T11:06:41.371Z,6.88
2022-11-28T11:07:32.706Z,7.07
2022-11-28T11:08:34.789Z,7.24
2022-11-28T11:09:36.838Z,7.32
2022-11-28T11:10:38.877Z,7.47
2022-11-28T11:11:40.939Z,7.56
2022-11-28T11:12:43.028Z,7.61
2022-11-28T11:13:45.084Z,7.68
2022-11-28T11:14:47.147Z,7.66
2022-11-28T11:15:49.275Z,7.54
2022-11-28T11:16:51.358Z,7.40
2022-11-28T11:17:53.371Z,7.18
2022-11-28T11:18:55.401Z,7.05
2022-11-28T11:19:57.468Z,7.15
2022-11-28T11:20:59.475Z,7.23
2022-11-28T11:22:01.499Z,7.13
2022-11-28T11:23:03.568Z,7.18
2022-11-28T11:24:05.662Z,7.29
2022-11-28T11:25:07.738Z,7.24
2022-11-28T11:26:09.767Z,7.13
2022-11-28T11:27:11.778Z,7.23
2022-11-28T11:28:13.769Z,7.31
2022-11-28T11:29:15.783Z,7.31
2022-11-28T11:30:17.800Z,7.15
2022-11-28T11:31:19.960Z,7.03
2022-11-28T11:32:21.947Z,7.00
2022-11-28T11:33:23.979Z,6.97
2022-11-28T11:34:26.002Z,7.02
2022-11-28T11:35:28.011Z,7.07
2022-11-28T11:36:30.022Z,7.14
2022-11-28T11:37:32.029Z,7.20
2022-11-28T11:38:37.740Z,7.24
2022-11-28T11:39:35.829Z,7.15
2022-11-28T11:40:37.853Z,7.11
2022-11-28T11:41:39.839Z,7.15
2022-11-28T11:42:41.868Z,6.99
2022-11-28T11:43:43.899Z,7.02
2022-11-28T11:44:45.932Z,6.88
2022-11-28T11:45:52.416Z,6.92
2022-11-28T11:46:49.153Z,7.02
2022-11-28T11:47:51.130Z,7.00
2022-11-28T11:48:53.139Z,6.95
2022-11-28T11:49:55.150Z,6.88
2022-11-28T11:50:57.170Z,6.78
2022-11-28T11:51:59.172Z,6.73
2022-11-28T11:53:01.180Z,6.83
2022-11-28T11:54:03.212Z,6.86
2022-11-28T11:55:05.212Z,6.95
2022-11-28T11:56:07.233Z,6.87
2022-11-28T11:57:32.052Z,6.87
2022-11-28T11:58:10.700Z,6.88
2022-11-28T11:59:12.709Z,7.00
2022-11-28T12:00:14.721Z,7.13
2022-11-28T12:01:16.746Z,7.21
2022-11-28T12:02:18.830Z,7.23
2022-11-28T12:03:20.912Z,7.14
2022-11-28T12:04:44.425Z,7.15
2022-11-28T12:05:24.388Z,7.24
2022-11-28T12:06:26.510Z,7.17
2022-11-28T12:07:28.562Z,7.18
2022-11-28T12:08:30.559Z,7.15
2022-11-28T12:09:32.589Z,7.17
2022-11-28T12:10:34.594Z,7.15
2022-11-28T12:11:36.610Z,7.14
2022-11-28T12:12:38.643Z,7.20
2022-11-28T12:13:40.649Z,7.28
2022-11-28T12:14:43.135Z,7.21
2022-11-28T12:15:44.324Z,7.20
2022-11-28T12:16:46.376Z,7.21
2022-11-28T12:17:50.682Z,7.18
2022-11-28T12:18:50.209Z,7.28
2022-11-28T12:19:52.255Z,7.32
2022-11-28T12:20:54.263Z,7.35
2022-11-28T12:21:56.351Z,7.43
2022-11-28T12:22:58.399Z,7.45
2022-11-28T12:24:00.431Z,7.45
2022-11-28T12:25:02.439Z,7.45
2022-11-28T12:26:04.468Z,7.43
2022-11-28T12:27:06.503Z,7.50
2022-11-28T12:28:08.535Z,7.56
2022-11-28T12:29:10.557Z,7.56
2022-11-28T12:30:12.556Z,7.50
2022-11-28T12:31:14.610Z,7.42
2022-11-28T12:32:16.587Z,7.43
2022-11-28T12:33:18.599Z,7.32
2022-11-28T12:34:20.625Z,7.38
2022-11-28T12:35:22.657Z,7.38
2022-11-28T12:36:24.670Z,7.42
2022-11-28T12:37:41.942Z,7.42
2022-11-28T12:38:28.117Z,7.43
2022-11-28T12:39:30.168Z,7.43
2022-11-28T12:40:32.179Z,7.42
2022-11-28T12:41:34.194Z,7.48
2022-11-28T12:42:36.224Z,7.53
2022-11-28T12:43:38.254Z,7.45
2022-11-28T12:44:40.265Z,7.47
2022-11-28T12:45:42.278Z,7.42
2022-11-28T12:46:44.353Z,7.47
2022-11-28T12:47:46.355Z,7.47
2022-11-28T12:48:53.027Z,7.40
2022-11-28T12:49:49.800Z,7.45
2022-11-28T12:50:51.809Z,7.47
2022-11-28T12:51:53.833Z,7.47
2022-11-28T12:52:55.870Z,7.40
2022-11-28T12:53:57.903Z,7.40
2022-11-28T12:54:59.931Z,7.43
2022-11-28T12:56:01.931Z,7.43
2022-11-28T12:57:03.976Z,7.43
2022-11-28T12:58:07.151Z,7.39
2022-11-28T12:59:08.144Z,7.47
2022-11-28T13:00:10.185Z,7.43
2022-11-28T13:01:12.211Z,7.50
2022-11-28T13:02:14.328Z,7.48
2022-11-28T13:03:16.374Z,7.42
2022-11-28T13:04:19.148Z,7.50
2022-11-28T13:05:20.059Z,7.53
2022-11-28T13:06:22.073Z,7.54
2022-11-28T13:07:24.128Z,7.56
2022-11-28T13:08:26.111Z,7.58
2022-11-28T13:09:28.141Z,7.58
2022-11-28T13:10:30.169Z,7.65
2022-11-28T13:11:32.193Z,7.69
2022-11-28T13:12:34.225Z,7.68
2022-11-28T13:13:36.242Z,7.61
2022-11-28T13:14:38.252Z,7.61
2022-11-28T13:15:40.359Z,7.50
2022-11-28T13:16:42.510Z,7.51
2022-11-28T13:17:43.435Z,7.51
2022-11-28T13:18:45.472Z,7.42
2022-11-28T13:19:47.561Z,7.45
2022-11-28T13:20:49.584Z,7.47
2022-11-28T13:21:51.595Z,7.53
2022-11-28T13:22:53.606Z,7.51
2022-11-28T13:23:55.665Z,7.50
2022-11-28T13:24:57.674Z,7.53
2022-11-28T13:25:59.686Z,7.56
2022-11-28T13:27:01.719Z,7.61
2022-11-28T13:28:03.735Z,7.60
2022-11-28T13:29:05.755Z,7.61
2022-11-28T13:30:07.783Z,7.61
2022-11-28T13:31:09.878Z,7.50
2022-11-28T13:32:11.903Z,7.48
2022-11-28T13:33:13.935Z,7.48
2022-11-28T13:34:15.948Z,7.40
2022-11-28T13:35:17.958Z,7.45
2022-11-28T13:38:46.016Z,7.54
2022-11-28T13:39:24.349Z,7.54
2022-11-28T13:40:26.404Z,7.48
2022-11-28T13:42:03.468Z,7.45
2022-11-28T13:42:59.424Z,7.47
2022-11-28T13:43:33.058Z,7.53
2022-11-28T13:44:32.987Z,7.50
2022-11-28T13:45:35.016Z,7.53
2022-11-28T13:46:37.084Z,7.57
2022-11-28T13:47:39.102Z,7.63
2022-11-28T13:49:42.560Z,7.50
2022-11-28T13:50:44.629Z,7.53
2022-11-28T13:51:46.775Z,7.45
2022-11-28T13:52:48.775Z,7.43
2022-11-28T13:53:50.805Z,7.43
2022-11-28T13:54:52.843Z,7.47
2022-11-28T13:55:54.851Z,7.47
2022-11-28T13:56:56.862Z,7.39
2022-11-28T13:57:58.890Z,7.40
2022-11-28T13:59:00.900Z,7.38
2022-11-28T14:00:02.960Z,7.36
2022-11-28T14:01:04.998Z,7.35
2022-11-28T14:02:07.079Z,7.39
2022-11-28T14:03:09.134Z,7.47
2022-11-28T14:04:11.169Z,7.43
2022-11-28T14:05:13.230Z,7.42
2022-11-28T14:06:15.258Z,7.45
2022-11-28T14:07:17.331Z,7.43
2022-11-28T14:08:19.318Z,7.38
2022-11-28T14:09:21.327Z,7.33
2022-11-28T14:10:23.353Z,7.29
2022-11-28T14:11:27.900Z,7.24
2022-11-28T14:12:37.340Z,7.15
2022-11-28T14:13:28.360Z,7.15
2022-11-28T14:14:30.391Z,7.15
2022-11-28T14:15:32.426Z,7.15
2022-11-28T14:16:34.668Z,7.13
2022-11-28T14:17:35.603Z,7.15
2022-11-28T14:18:56.292Z,7.15
2022-11-28T14:19:39.066Z,7.15
2022-11-28T14:20:41.081Z,7.15
2022-11-28T14:21:43.109Z,7.15
2022-11-28T14:22:45.136Z,7.17
2022-11-28T14:23:47.166Z,7.18
2022-11-28T14:24:49.183Z,7.18
2022-11-28T14:25:51.263Z,7.18
2022-11-28T14:26:53.269Z,7.14
2022-11-28T14:27:55.281Z,7.17
2022-11-28T14:28:57.296Z,7.14
2022-11-28T14:29:59.296Z,7.11
2022-11-28T14:31:01.358Z,7.05
2022-11-28T14:33:04.766Z,7.07
2022-11-28T14:34:06.765Z,7.06
2022-11-28T14:35:08.772Z,7.06
2022-11-28T14:36:10.788Z,7.06
2022-11-28T14:37:12.798Z,7.06
2022-11-28T14:38:16.891Z,7.06
2022-11-28T14:39:16.799Z,7.07
2022-11-28T14:40:18.828Z,7.06
2022-11-28T14:41:20.871Z,7.10
2022-11-28T14:42:58.260Z,7.06
2022-11-28T14:43:24.351Z,7.06
2022-11-28T14:44:26.376Z,7.05
2022-11-28T14:45:28.354Z,7.03
2022-11-28T14:46:30.438Z,7.02
2022-11-28T14:47:32.462Z,6.99
2022-11-28T14:48:34.504Z,6.99
2022-11-28T14:49:36.487Z,6.96
2022-11-28T14:50:38.500Z,6.95
2022-11-28T14:51:40.534Z,6.95
2022-11-28T14:52:42.561Z,6.91
2022-11-28T14:53:44.597Z,6.92
2022-11-28T14:54:47.082Z,6.95
2022-11-28T14:55:48.125Z,6.96
2022-11-28T14:56:52.917Z,6.95
2022-11-28T14:57:51.572Z,6.92
2022-11-28T14:58:53.580Z,6.88
2022-11-28T14:59:55.589Z,6.88
2022-11-28T15:00:57.585Z,6.86
2022-11-28T15:01:59.673Z,6.86
